Time;durP1;ratioP1;P1;durP2;ratioP2;P2;SDS_P1;SDS_P2;PMS_P1;PMS_P2;Temp;Humidity;BMP_temperature;BMP_pressure;BME280_temperature;BME280_humidity;BME280_pressure;Samples;Min_cycle;Max_cycle;Signal;HPM_P1;HPM_P2
2023/06/26 00:01:34;;;;;;;8.60;7.80;;;;;;;;;;5051248;28;20410;-49
2023/06/26 00:04:01;;;;;;;6.77;6.17;;;;;;;;;;5051115;28;20497;-49
2023/06/26 00:06:27;;;;;;;6.30;5.80;;;;;;;;;;5050894;28;20545;-47
2023/06/26 00:08:54;;;;;;;8.07;6.57;;;;;;;;;;5051275;28;20763;-48
2023/06/26 00:11:20;;;;;;;7.33;6.63;;;;;;;;;;5050060;28;20509;-46
2023/06/26 00:13:46;;;;;;;6.00;5.50;;;;;;;;;;5050088;28;20417;-50
2023/06/26 00:16:12;;;;;;;7.50;6.80;;;;;;;;;;5051071;28;20770;-50
2023/06/26 00:18:38;;;;;;;6.83;6.13;;;;;;;;;;5051233;28;20402;-48
2023/06/26 00:21:04;;;;;;;6.60;6.00;;;;;;;;;;5050891;28;20837;-47
2023/06/26 00:23:36;;;;;;;8.10;5.70;;;;;;;;;;5051763;28;20430;-46
2023/06/26 00:26:02;;;;;;;6.93;6.33;;;;;;;;;;5055144;28;20476;-47
2023/06/26 00:28:28;;;;;;;7.40;6.70;;;;;;;;;;5054965;28;20427;-49
2023/06/26 00:30:54;;;;;;;6.87;6.17;;;;;;;;;;5055225;28;20765;-47
2023/06/26 00:33:20;;;;;;;6.77;6.10;;;;;;;;;;5055103;28;20866;-50
2023/06/26 00:35:46;;;;;;;8.10;6.10;;;;;;;;;;5054799;28;20888;-50
2023/06/26 00:38:12;;;;;;;5.87;5.47;;;;;;;;;;5054403;28;20773;-48
2023/06/26 00:40:38;;;;;;;6.80;5.87;;;;;;;;;;5054515;28;20836;-48
2023/06/26 00:43:04;;;;;;;7.20;6.50;;;;;;;;;;5053434;28;20837;-48
2023/06/26 00:45:30;;;;;;;8.50;6.07;;;;;;;;;;5054490;28;20455;-49
2023/06/26 00:47:56;;;;;;;6.07;5.47;;;;;;;;;;5054858;28;20404;-46
2023/06/26 00:50:22;;;;;;;11.43;5.90;;;;;;;;;;5054409;28;20893;-48
2023/06/26 00:52:48;;;;;;;7.40;6.70;;;;;;;;;;5054614;28;20407;-48
2023/06/26 00:55:14;;;;;;;6.60;6.10;;;;;;;;;;5054511;28;20413;-46
2023/06/26 00:57:40;;;;;;;7.40;6.40;;;;;;;;;;5054427;28;20437;-47
2023/06/26 01:00:07;;;;;;;6.97;6.30;;;;;;;;;;5054245;28;20439;-47
2023/06/26 01:02:33;;;;;;;7.40;6.33;;;;;;;;;;5053739;28;20419;-46
2023/06/26 01:05:00;;;;;;;7.33;6.00;;;;;;;;;;5053852;28;20455;-48
2023/06/26 01:07:26;;;;;;;8.80;7.17;;;;;;;;;;5054011;28;20445;-48
2023/06/26 01:09:52;;;;;;;7.40;6.03;;;;;;;;;;5053655;28;20470;-49
2023/06/26 01:12:18;;;;;;;6.60;6.00;;;;;;;;;;5053364;28;20448;-48
2023/06/26 01:14:44;;;;;;;6.80;6.10;;;;;;;;;;5053958;28;20897;-49
2023/06/26 01:17:15;;;;;;;7.93;7.07;;;;;;;;;;5054200;28;20504;-48
2023/06/26 01:19:42;;;;;;;9.97;6.17;;;;;;;;;;5053879;28;20415;-48
2023/06/26 01:22:14;;;;;;;7.53;6.73;;;;;;;;;;5054077;28;20503;-49
2023/06/26 01:24:42;;;;;;;6.47;5.87;;;;;;;;;;5046013;28;20501;-50
2023/06/26 01:27:08;;;;;;;7.20;6.47;;;;;;;;;;5053969;28;20999;-49
2023/06/26 01:29:34;;;;;;;7.00;6.30;;;;;;;;;;5051194;28;20424;-49
2023/06/26 01:32:01;;;;;;;8.57;6.50;;;;;;;;;;5053841;28;20414;-49
2023/06/26 01:34:27;;;;;;;7.20;6.40;;;;;;;;;;5053129;28;20439;-48
2023/06/26 01:36:53;;;;;;;7.33;6.60;;;;;;;;;;5053506;28;20454;-49
2023/06/26 01:39:20;;;;;;;6.53;5.93;;;;;;;;;;5053837;28;20757;-46
2023/06/26 01:41:46;;;;;;;7.43;6.80;;;;;;;;;;5052453;28;20429;-48
2023/06/26 01:44:27;;;;;;;6.73;5.40;;;;;;;;;;5053699;28;21025;-48
2023/06/26 01:47:00;;;;;;;6.97;6.37;;;;;;;;;;5048784;28;20417;-50
2023/06/26 01:49:35;;;;;;;7.07;6.30;;;;;;;;;;5053604;28;20411;-47
2023/06/26 01:52:08;;;;;;;9.70;5.90;;;;;;;;;;5048595;28;20471;-49
2023/06/26 01:54:37;;;;;;;7.70;7.00;;;;;;;;;;5053513;28;20410;-50
2023/06/26 01:57:04;;;;;;;7.43;6.73;;;;;;;;;;5053730;28;20434;-49
2023/06/26 01:59:31;;;;;;;7.87;6.57;;;;;;;;;;5053405;28;20437;-49
2023/06/26 02:01:57;;;;;;;7.70;6.90;;;;;;;;;;5053008;28;20460;-50
2023/06/26 02:04:23;;;;;;;7.40;6.77;;;;;;;;;;5053212;28;20495;-48
2023/06/26 02:06:49;;;;;;;6.60;6.00;;;;;;;;;;5052940;28;20445;-50
2023/06/26 02:09:15;;;;;;;8.83;6.50;;;;;;;;;;5053101;28;20491;-47
2023/06/26 02:11:41;;;;;;;7.20;6.60;;;;;;;;;;5052199;28;20788;-50
2023/06/26 02:14:09;;;;;;;8.53;6.97;;;;;;;;;;5052983;28;20415;-50
2023/06/26 02:16:35;;;;;;;7.23;6.53;;;;;;;;;;5052944;28;20860;-49
2023/06/26 02:19:00;;;;;;;7.47;6.87;;;;;;;;;;5052992;28;20410;-48
2023/06/26 02:21:26;;;;;;;7.00;6.40;;;;;;;;;;5052571;28;20909;-47
2023/06/26 02:23:52;;;;;;;8.97;6.90;;;;;;;;;;5057852;28;20945;-48
2023/06/26 02:26:18;;;;;;;7.00;6.40;;;;;;;;;;5052890;28;20945;-49
2023/06/26 02:28:44;;;;;;;7.13;6.53;;;;;;;;;;5052906;28;20883;-49
2023/06/26 02:31:10;;;;;;;7.07;6.30;;;;;;;;;;5052604;28;20894;-50
2023/06/26 02:33:36;;;;;;;10.37;6.70;;;;;;;;;;5052674;28;20456;-50
2023/06/26 02:36:02;;;;;;;7.07;6.47;;;;;;;;;;5052475;28;20958;-49
2023/06/26 02:38:28;;;;;;;6.50;5.90;;;;;;;;;;5052643;28;20913;-49
2023/06/26 02:40:54;;;;;;;8.97;6.03;;;;;;;;;;5051345;28;20429;-49
2023/06/26 02:43:20;;;;;;;7.03;6.37;;;;;;;;;;5052881;28;20413;-47
2023/06/26 02:45:46;;;;;;;7.33;6.63;;;;;;;;;;5052125;28;20453;-50
2023/06/26 02:48:12;;;;;;;6.40;5.80;;;;;;;;;;5051644;28;20877;-49
2023/06/26 02:50:38;;;;;;;7.07;6.10;;;;;;;;;;5052083;28;20401;-49
2023/06/26 02:53:04;;;;;;;6.90;6.20;;;;;;;;;;5052362;28;20413;-48
2023/06/26 02:55:30;;;;;;;9.90;6.73;;;;;;;;;;5052206;28;20420;-49
2023/06/26 02:57:56;;;;;;;6.80;6.07;;;;;;;;;;5052406;28;20425;-48
2023/06/26 03:00:21;;;;;;;7.23;6.30;;;;;;;;;;5051928;28;20861;-48
2023/06/26 03:02:47;;;;;;;7.43;6.77;;;;;;;;;;5052220;28;20813;-48
2023/06/26 03:05:13;;;;;;;7.37;6.67;;;;;;;;;;5051862;28;20955;-47
2023/06/26 03:07:39;;;;;;;6.13;5.57;;;;;;;;;;5052128;28;20481;-49
2023/06/26 03:10:06;;;;;;;6.73;6.13;;;;;;;;;;5051045;28;20429;-49
2023/06/26 03:12:32;;;;;;;7.13;6.43;;;;;;;;;;5052060;28;20818;-49
2023/06/26 03:14:57;;;;;;;6.70;6.10;;;;;;;;;;5051870;28;20953;-50
2023/06/26 03:17:23;;;;;;;7.33;6.70;;;;;;;;;;5051790;28;20440;-49
2023/06/26 03:19:49;;;;;;;7.13;6.33;;;;;;;;;;5051550;28;20420;-48
2023/06/26 03:22:15;;;;;;;8.40;6.70;;;;;;;;;;5051957;28;20406;-49
2023/06/26 03:24:41;;;;;;;7.70;6.07;;;;;;;;;;5051640;28;20548;-49
2023/06/26 03:27:09;;;;;;;7.60;6.33;;;;;;;;;;5051714;28;20425;-46
2023/06/26 03:29:35;;;;;;;6.70;6.10;;;;;;;;;;5051737;28;20417;-46
2023/06/26 03:32:01;;;;;;;6.57;5.97;;;;;;;;;;5052047;28;20818;-50
2023/06/26 03:34:27;;;;;;;9.13;7.30;;;;;;;;;;5051591;28;20416;-50
2023/06/26 03:36:53;;;;;;;6.87;6.27;;;;;;;;;;5051674;28;20787;-50
2023/06/26 03:39:19;;;;;;;6.90;6.30;;;;;;;;;;5051169;28;20982;-48
2023/06/26 03:41:45;;;;;;;7.40;5.80;;;;;;;;;;5051240;28;20906;-49
2023/06/26 03:44:12;;;;;;;7.30;6.70;;;;;;;;;;5051492;28;20445;-49
2023/06/26 03:46:37;;;;;;;6.97;6.27;;;;;;;;;;5049819;28;20452;-48
2023/06/26 03:49:03;;;;;;;8.27;6.60;;;;;;;;;;5051385;28;20456;-49
2023/06/26 03:51:29;;;;;;;7.60;6.27;;;;;;;;;;5051242;28;20820;-50
2023/06/26 03:53:55;;;;;;;9.43;6.23;;;;;;;;;;5050454;28;20422;-48
2023/06/26 03:56:21;;;;;;;7.97;6.50;;;;;;;;;;5051413;28;20432;-48
2023/06/26 03:58:47;;;;;;;6.37;5.70;;;;;;;;;;5051091;28;20905;-47
2023/06/26 04:01:13;;;;;;;6.80;6.20;;;;;;;;;;5051172;28;21173;-47
2023/06/26 04:03:39;;;;;;;8.93;6.33;;;;;;;;;;5051351;28;20813;-47
2023/06/26 04:06:05;;;;;;;7.40;6.70;;;;;;;;;;5051440;28;20535;-50
2023/06/26 04:08:31;;;;;;;7.10;6.50;;;;;;;;;;5051332;28;20405;-50
2023/06/26 04:10:58;;;;;;;7.23;6.53;;;;;;;;;;5050856;28;20576;-46
2023/06/26 04:13:24;;;;;;;8.40;6.83;;;;;;;;;;5051262;28;20412;-45
2023/06/26 04:15:50;;;;;;;7.47;6.37;;;;;;;;;;5051160;28;20780;-44
2023/06/26 04:18:16;;;;;;;9.40;7.23;;;;;;;;;;5051143;28;20435;-45
2023/06/26 04:21:02;;;;;;;7.90;7.20;;;;;;;;;;5051043;28;20393;-45
2023/06/26 04:23:28;;;;;;;8.03;6.77;;;;;;;;;;5049931;28;20405;-45
2023/06/26 04:25:54;;;;;;;6.30;5.70;;;;;;;;;;5051137;28;20464;-45
2023/06/26 04:28:20;;;;;;;6.50;6.00;;;;;;;;;;5051031;28;20405;-46
2023/06/26 04:30:46;;;;;;;15.87;7.13;;;;;;;;;;5050838;28;20423;-46
2023/06/26 04:33:12;;;;;;;7.00;6.40;;;;;;;;;;5051442;28;20421;-44
2023/06/26 04:35:37;;;;;;;8.53;6.67;;;;;;;;;;5050918;28;20410;-45
2023/06/26 04:38:05;;;;;;;7.03;6.43;;;;;;;;;;5051238;28;20470;-45
2023/06/26 04:40:30;;;;;;;10.87;6.67;;;;;;;;;;5049670;28;20520;-46
2023/06/26 04:42:56;;;;;;;6.50;5.30;;;;;;;;;;5051093;28;20922;-46
2023/06/26 04:45:22;;;;;;;10.17;7.07;;;;;;;;;;5050807;28;20860;-45
2023/06/26 04:47:48;;;;;;;10.00;7.00;;;;;;;;;;5050958;28;20421;-45
2023/06/26 04:50:14;;;;;;;6.63;6.03;;;;;;;;;;5050720;28;20828;-45
2023/06/26 04:52:40;;;;;;;10.17;5.93;;;;;;;;;;5051029;28;20880;-45
2023/06/26 04:55:07;;;;;;;7.90;7.10;;;;;;;;;;5051279;28;20425;-45
2023/06/26 04:57:33;;;;;;;7.67;6.33;;;;;;;;;;5051167;28;20465;-44
2023/06/26 04:59:59;;;;;;;7.60;6.80;;;;;;;;;;5050758;28;20441;-45
2023/06/26 05:02:26;;;;;;;8.47;5.87;;;;;;;;;;5050953;28;20432;-45
2023/06/26 05:04:52;;;;;;;7.67;6.70;;;;;;;;;;5050689;28;20510;-45
2023/06/26 05:07:18;;;;;;;7.90;7.10;;;;;;;;;;5050118;28;20449;-45
2023/06/26 05:09:44;;;;;;;7.93;6.50;;;;;;;;;;5049369;28;20428;-45
2023/06/26 05:12:11;;;;;;;7.83;6.90;;;;;;;;;;5050687;28;20504;-45
2023/06/26 05:14:37;;;;;;;9.77;7.40;;;;;;;;;;5053134;28;20475;-44
2023/06/26 05:17:03;;;;;;;10.27;7.37;;;;;;;;;;5053741;28;20433;-45
2023/06/26 05:19:29;;;;;;;9.47;6.97;;;;;;;;;;5053699;28;20492;-45
2023/06/26 05:21:56;;;;;;;7.40;6.60;;;;;;;;;;5053931;28;20496;-45
2023/06/26 05:24:23;;;;;;;7.60;6.80;;;;;;;;;;5053983;28;20563;-45
2023/06/26 05:26:49;;;;;;;14.00;7.53;;;;;;;;;;5053783;28;20837;-46
2023/06/26 05:29:15;;;;;;;7.47;6.77;;;;;;;;;;5054036;28;20413;-45
2023/06/26 05:31:42;;;;;;;9.53;8.10;;;;;;;;;;5056386;28;20847;-45
2023/06/26 05:34:10;;;;;;;8.50;7.70;;;;;;;;;;5053381;28;20529;-46
2023/06/26 05:36:37;;;;;;;7.23;6.53;;;;;;;;;;5053203;28;20512;-45
2023/06/26 05:39:03;;;;;;;8.77;7.87;;;;;;;;;;5052820;28;20433;-45
2023/06/26 05:41:29;;;;;;;8.43;7.60;;;;;;;;;;5053685;28;20951;-45
2023/06/26 05:43:55;;;;;;;7.80;7.00;;;;;;;;;;5053659;28;20406;-46
2023/06/26 05:46:21;;;;;;;8.30;7.33;;;;;;;;;;5053773;28;20490;-45
2023/06/26 05:48:47;;;;;;;9.47;7.23;;;;;;;;;;5053663;28;20449;-45
2023/06/26 05:51:13;;;;;;;9.50;8.03;;;;;;;;;;5053376;28;20420;-45
2023/06/26 05:53:39;;;;;;;8.20;7.40;;;;;;;;;;5053484;28;20933;-45
2023/06/26 05:56:05;;;;;;;11.23;8.27;;;;;;;;;;5053340;28;20429;-45
2023/06/26 05:58:31;;;;;;;9.90;7.97;;;;;;;;;;5053517;28;20413;-45
2023/06/26 06:00:57;;;;;;;9.70;7.97;;;;;;;;;;5053175;28;20412;-45
2023/06/26 06:03:24;;;;;;;9.30;7.63;;;;;;;;;;5053356;28;20413;-45
2023/06/26 06:05:49;;;;;;;13.50;9.13;;;;;;;;;;5053188;28;20808;-45
2023/06/26 06:08:15;;;;;;;8.40;6.47;;;;;;;;;;5059453;28;20409;-45
2023/06/26 06:10:41;;;;;;;7.87;7.17;;;;;;;;;;5052644;28;20914;-44
2023/06/26 06:13:07;;;;;;;11.07;7.40;;;;;;;;;;5053160;28;20890;-45
2023/06/26 06:15:33;;;;;;;8.17;7.37;;;;;;;;;;5053120;28;20492;-45
2023/06/26 06:17:59;;;;;;;8.00;6.87;;;;;;;;;;5053119;28;20440;-45
2023/06/26 06:20:25;;;;;;;7.30;6.40;;;;;;;;;;5052749;28;20410;-45
2023/06/26 06:22:51;;;;;;;10.33;5.53;;;;;;;;;;5052774;28;20437;-45
2023/06/26 06:25:17;;;;;;;10.87;7.20;;;;;;;;;;5052663;28;20488;-45
2023/06/26 06:27:43;;;;;;;8.83;6.63;;;;;;;;;;5052850;28;20516;-45
2023/06/26 06:30:09;;;;;;;7.83;6.73;;;;;;;;;;5052677;28;20409;-45
2023/06/26 06:32:35;;;;;;;11.70;6.37;;;;;;;;;;5052709;28;20436;-45
2023/06/26 06:35:08;;;;;;;8.30;7.17;;;;;;;;;;5052938;28;20409;-45
2023/06/26 06:37:34;;;;;;;11.90;6.17;;;;;;;;;;5052650;28;20433;-45
2023/06/26 06:40:00;;;;;;;8.07;5.77;;;;;;;;;;5051453;28;20428;-44
2023/06/26 06:42:26;;;;;;;8.33;6.57;;;;;;;;;;5052520;28;20901;-45
2023/06/26 06:44:52;;;;;;;11.43;6.07;;;;;;;;;;5052511;28;20465;-45
2023/06/26 06:47:18;;;;;;;12.10;6.20;;;;;;;;;;5052340;28;20491;-45
2023/06/26 06:49:44;;;;;;;9.67;5.97;;;;;;;;;;5052282;28;20417;-45
2023/06/26 06:52:10;;;;;;;9.73;6.50;;;;;;;;;;5052389;28;20773;-46
2023/06/26 06:54:52;;;;;;;9.20;5.70;;;;;;;;;;5052421;28;20405;-44
2023/06/26 06:57:18;;;;;;;11.23;6.20;;;;;;;;;;5052210;28;20990;-45
2023/06/26 06:59:44;;;;;;;10.70;6.50;;;;;;;;;;5051666;28;20445;-45
2023/06/26 07:02:10;;;;;;;8.03;6.10;;;;;;;;;;5051274;28;20467;-45
2023/06/26 07:04:36;;;;;;;6.90;5.90;;;;;;;;;;5052056;28;20506;-45
2023/06/26 07:07:02;;;;;;;7.90;6.43;;;;;;;;;;5051900;28;20490;-46
2023/06/26 07:09:28;;;;;;;8.53;5.77;;;;;;;;;;5051481;28;20436;-45
2023/06/26 07:11:54;;;;;;;10.33;5.80;;;;;;;;;;5052064;28;20393;-45
2023/06/26 07:14:20;;;;;;;10.17;6.00;;;;;;;;;;5052122;28;20768;-44
2023/06/26 07:16:46;;;;;;;9.03;6.03;;;;;;;;;;5052192;28;20460;-45
2023/06/26 07:19:12;;;;;;;10.07;6.50;;;;;;;;;;5051923;28;20786;-45
2023/06/26 07:21:38;;;;;;;9.80;5.87;;;;;;;;;;5051825;28;20770;-45
2023/06/26 07:24:04;;;;;;;8.00;5.73;;;;;;;;;;5051913;28;20828;-45
2023/06/26 07:26:30;;;;;;;6.53;5.93;;;;;;;;;;5051661;28;20436;-45
2023/06/26 07:28:56;;;;;;;13.60;6.77;;;;;;;;;;5051772;28;20783;-45
2023/06/26 07:31:22;;;;;;;9.27;6.70;;;;;;;;;;5051667;28;20397;-45
2023/06/26 07:33:48;;;;;;;11.23;6.57;;;;;;;;;;5051136;28;20405;-46
2023/06/26 07:36:14;;;;;;;7.93;6.77;;;;;;;;;;5051670;28;20460;-45
2023/06/26 07:38:40;;;;;;;10.90;7.07;;;;;;;;;;5049814;28;20514;-45
2023/06/26 07:41:06;;;;;;;10.33;6.83;;;;;;;;;;5051451;28;20416;-45
2023/06/26 07:43:32;;;;;;;10.10;7.20;;;;;;;;;;5051498;28;20413;-45
2023/06/26 07:45:58;;;;;;;13.03;7.70;;;;;;;;;;5051874;28;20467;-45
2023/06/26 07:48:24;;;;;;;8.77;6.30;;;;;;;;;;5051629;28;20952;-45
2023/06/26 07:50:50;;;;;;;9.13;6.60;;;;;;;;;;5051567;28;20431;-45
2023/06/26 07:53:16;;;;;;;13.07;6.83;;;;;;;;;;5051504;28;20413;-45
2023/06/26 07:55:43;;;;;;;13.50;7.10;;;;;;;;;;5051423;28;20413;-45
2023/06/26 07:58:09;;;;;;;16.60;6.90;;;;;;;;;;5049834;28;20456;-45
2023/06/26 08:00:35;;;;;;;9.93;6.63;;;;;;;;;;5051246;28;20417;-46
2023/06/26 08:03:01;;;;;;;14.03;7.37;;;;;;;;;;5051513;28;20441;-45
2023/06/26 08:05:27;;;;;;;11.43;7.43;;;;;;;;;;5051514;28;20954;-45
2023/06/26 08:07:53;;;;;;;11.53;6.87;;;;;;;;;;5050216;28;20475;-45
2023/06/26 08:10:19;;;;;;;7.77;7.00;;;;;;;;;;5051204;28;20459;-45
2023/06/26 08:12:46;;;;;;;15.30;8.07;;;;;;;;;;5051259;28;20524;-45
2023/06/26 08:15:12;;;;;;;19.67;8.40;;;;;;;;;;5051306;28;20423;-45
2023/06/26 08:17:39;;;;;;;10.30;7.90;;;;;;;;;;5048047;28;20602;-44
2023/06/26 08:20:07;;;;;;;10.10;7.00;;;;;;;;;;5048212;28;20410;-45
2023/06/26 08:22:33;;;;;;;17.30;6.93;;;;;;;;;;5051259;28;20421;-45
2023/06/26 08:24:59;;;;;;;8.93;7.87;;;;;;;;;;5050962;28;20839;-45
2023/06/26 08:27:26;;;;;;;7.17;6.43;;;;;;;;;;5050900;28;20440;-45
2023/06/26 08:29:51;;;;;;;16.33;7.60;;;;;;;;;;5061059;28;20815;-46
2023/06/26 08:32:17;;;;;;;8.00;7.20;;;;;;;;;;5051327;28;20393;-45
2023/06/26 08:34:43;;;;;;;11.27;6.43;;;;;;;;;;5050032;28;20426;-45
2023/06/26 08:37:09;;;;;;;11.17;7.70;;;;;;;;;;5051090;28;20471;-45
2023/06/26 08:39:36;;;;;;;11.67;6.20;;;;;;;;;;5038255;28;20487;-45
2023/06/26 08:42:01;;;;;;;9.80;6.63;;;;;;;;;;5055493;28;20793;-45
2023/06/26 08:44:28;;;;;;;11.50;7.73;;;;;;;;;;5052099;28;20483;-45
2023/06/26 08:46:54;;;;;;;10.47;7.70;;;;;;;;;;5054830;28;20461;-46
2023/06/26 08:49:29;;;;;;;8.60;6.97;;;;;;;;;;5054995;28;20423;-45
2023/06/26 08:52:07;;;;;;;7.97;7.00;;;;;;;;;;5054581;28;20402;-45
2023/06/26 08:54:38;;;;;;;8.43;7.60;;;;;;;;;;5054472;28;20407;-45
2023/06/26 08:57:05;;;;;;;10.70;7.67;;;;;;;;;;5046462;28;20445;-45
2023/06/26 08:59:31;;;;;;;12.73;7.70;;;;;;;;;;5051320;28;20516;-45
2023/06/26 09:01:57;;;;;;;9.53;7.00;;;;;;;;;;5053787;28;20843;-44
2023/06/26 09:04:23;;;;;;;10.50;8.27;;;;;;;;;;5053788;28;20586;-45
2023/06/26 09:06:49;;;;;;;9.50;8.33;;;;;;;;;;5053100;28;20953;-45
2023/06/26 09:09:15;;;;;;;12.77;8.30;;;;;;;;;;5053196;28;20439;-45
2023/06/26 09:11:41;;;;;;;9.97;8.00;;;;;;;;;;5054297;28;20409;-45
2023/06/26 09:14:10;;;;;;;12.30;8.77;;;;;;;;;;5054414;28;20424;-44
2023/06/26 09:16:44;;;;;;;9.63;7.97;;;;;;;;;;5054322;28;20962;-45
2023/06/26 09:19:11;;;;;;;10.73;7.03;;;;;;;;;;5054507;28;20409;-44
2023/06/26 09:21:38;;;;;;;11.33;6.70;;;;;;;;;;5054104;28;20416;-46
2023/06/26 09:24:05;;;;;;;10.27;6.67;;;;;;;;;;5054074;28;20423;-45
2023/06/26 09:26:31;;;;;;;8.33;7.43;;;;;;;;;;5054032;28;20914;-45
2023/06/26 09:28:57;;;;;;;12.23;8.80;;;;;;;;;;5054176;28;20609;-45
2023/06/26 09:31:24;;;;;;;9.87;8.00;;;;;;;;;;5053785;28;20420;-45
2023/06/26 09:33:56;;;;;;;15.07;7.63;;;;;;;;;;5053977;28;20994;-46
2023/06/26 09:36:23;;;;;;;9.17;6.60;;;;;;;;;;5054023;28;20803;-45
2023/06/26 09:38:49;;;;;;;11.67;6.20;;;;;;;;;;5046179;28;20428;-46
2023/06/26 09:41:18;;;;;;;13.90;6.57;;;;;;;;;;5053493;28;20413;-45
2023/06/26 09:43:51;;;;;;;14.47;5.90;;;;;;;;;;5053131;28;20440;-46
2023/06/26 09:46:26;;;;;;;9.03;6.60;;;;;;;;;;5053587;28;20460;-45
2023/06/26 09:49:04;;;;;;;13.00;5.63;;;;;;;;;;5053690;28;20397;-46
2023/06/26 09:51:33;;;;;;;9.03;5.80;;;;;;;;;;5053638;28;20397;-45
2023/06/26 09:54:00;;;;;;;11.50;5.93;;;;;;;;;;5053477;28;20418;-45
2023/06/26 09:56:26;;;;;;;8.50;5.07;;;;;;;;;;5052742;28;20432;-46
2023/06/26 09:58:52;;;;;;;9.13;5.10;;;;;;;;;;5053347;28;20409;-46
2023/06/26 10:01:18;;;;;;;10.23;4.80;;;;;;;;;;5053026;28;20464;-45
2023/06/26 10:03:44;;;;;;;7.63;5.70;;;;;;;;;;5053360;28;20428;-46
2023/06/26 10:06:12;;;;;;;9.80;5.10;;;;;;;;;;5053088;28;20993;-45
2023/06/26 10:08:38;;;;;;;9.63;4.87;;;;;;;;;;5052271;28;20500;-45
2023/06/26 10:11:04;;;;;;;6.00;4.60;;;;;;;;;;5053662;28;20784;-50
2023/06/26 10:13:37;;;;;;;8.33;5.60;;;;;;;;;;5053157;28;20398;-47
2023/06/26 10:16:03;;;;;;;6.37;4.93;;;;;;;;;;5053093;28;20425;-47
2023/06/26 10:18:32;;;;;;;6.43;4.50;;;;;;;;;;5052923;28;20423;-48
2023/06/26 10:20:58;;;;;;;5.73;4.20;;;;;;;;;;5052740;28;20405;-48
2023/06/26 10:23:25;;;;;;;10.03;4.80;;;;;;;;;;5052928;28;20482;-45
2023/06/26 10:25:52;;;;;;;11.23;4.80;;;;;;;;;;5052907;28;21024;-49
2023/06/26 10:28:19;;;;;;;8.33;6.03;;;;;;;;;;5052537;28;20409;-48
2023/06/26 10:30:46;;;;;;;11.50;5.93;;;;;;;;;;5052234;28;20476;-50
2023/06/26 10:33:13;;;;;;;6.67;5.00;;;;;;;;;;5052889;28;20945;-50
2023/06/26 10:35:43;;;;;;;8.10;4.70;;;;;;;;;;5051707;28;20923;-48
2023/06/26 10:38:09;;;;;;;14.63;5.67;;;;;;;;;;5036565;28;20437;-48
2023/06/26 10:40:42;;;;;;;6.20;4.67;;;;;;;;;;5048982;28;20410;-48
2023/06/26 10:43:09;;;;;;;8.13;4.47;;;;;;;;;;5048626;28;20436;-49
2023/06/26 10:45:36;;;;;;;6.40;4.50;;;;;;;;;;5052253;28;20985;-49
2023/06/26 10:48:04;;;;;;;6.17;4.27;;;;;;;;;;5052493;28;20413;-49
2023/06/26 10:50:31;;;;;;;7.20;4.23;;;;;;;;;;5051559;28;20937;-48
2023/06/26 10:53:19;;;;;;;6.27;4.00;;;;;;;;;;5044183;28;20402;-50
2023/06/26 10:55:50;;;;;;;3.80;3.20;;;;;;;;;;5045518;28;20405;-49
2023/06/26 10:58:31;;;;;;;5.77;4.00;;;;;;;;;;5049561;28;20734;-50
2023/06/26 11:01:15;;;;;;;5.43;4.80;;;;;;;;;;5052062;28;20492;-48
2023/06/26 11:03:42;;;;;;;5.37;4.20;;;;;;;;;;5045774;28;20509;-49
2023/06/26 11:06:12;;;;;;;9.03;5.40;;;;;;;;;;5045150;28;21013;-49
2023/06/26 11:08:47;;;;;;;10.40;5.47;;;;;;;;;;5048268;28;20431;-50
2023/06/26 11:11:13;;;;;;;9.50;7.40;;;;;;;;;;5048229;28;20496;-49
2023/06/26 11:13:40;;;;;;;4.83;4.10;;;;;;;;;;5050794;28;20828;-49
2023/06/26 11:16:06;;;;;;;7.93;4.50;;;;;;;;;;5051851;28;20440;-48
2023/06/26 11:18:32;;;;;;;4.60;4.20;;;;;;;;;;5050865;28;20913;-49
2023/06/26 11:21:08;;;;;;;6.20;3.87;;;;;;;;;;5051689;28;20424;-49
2023/06/26 11:23:38;;;;;;;7.53;4.00;;;;;;;;;;5050530;28;20502;-49
2023/06/26 11:26:13;;;;;;;7.73;3.80;;;;;;;;;;5051845;28;20466;-50
2023/06/26 11:28:39;;;;;;;6.10;3.90;;;;;;;;;;5051444;28;20430;-49
2023/06/26 11:31:05;;;;;;;10.40;3.70;;;;;;;;;;5036437;28;20430;-49
2023/06/26 11:33:31;;;;;;;6.93;3.63;;;;;;;;;;5050819;28;20467;-49
2023/06/26 11:36:08;;;;;;;7.17;4.23;;;;;;;;;;5050617;28;20437;-47
2023/06/26 11:38:38;;;;;;;5.60;4.47;;;;;;;;;;5049335;28;20512;-49
2023/06/26 11:41:08;;;;;;;6.27;3.90;;;;;;;;;;5048371;28;20432;-48
2023/06/26 11:43:34;;;;;;;6.47;4.83;;;;;;;;;;5049069;28;20492;-48
2023/06/26 11:46:00;;;;;;;4.00;3.70;;;;;;;;;;5048788;28;20982;-49
2023/06/26 11:48:26;;;;;;;7.80;4.13;;;;;;;;;;5049922;28;20512;-48
2023/06/26 11:50:52;;;;;;;4.03;3.63;;;;;;;;;;5052904;28;20419;-46
2023/06/26 11:53:18;;;;;;;4.00;3.57;;;;;;;;;;5051347;28;20492;-48
2023/06/26 11:55:44;;;;;;;6.33;4.20;;;;;;;;;;5050716;28;21145;-50
2023/06/26 11:58:10;;;;;;;4.43;3.37;;;;;;;;;;5051360;28;20467;-50
2023/06/26 12:00:41;;;;;;;8.00;3.40;;;;;;;;;;5051108;28;20814;-50
2023/06/26 12:03:07;;;;;;;5.13;3.13;;;;;;;;;;5051372;28;20768;-48
2023/06/26 12:05:33;;;;;;;5.23;3.00;;;;;;;;;;5050408;28;20563;-46
2023/06/26 12:07:59;;;;;;;7.23;3.00;;;;;;;;;;5051192;28;20969;-48
2023/06/26 12:10:25;;;;;;;4.80;2.77;;;;;;;;;;5051001;28;20618;-50
2023/06/26 12:12:51;;;;;;;8.43;2.70;;;;;;;;;;5051158;28;20456;-49
2023/06/26 12:15:17;;;;;;;3.70;2.70;;;;;;;;;;5051261;28;20432;-50
2023/06/26 12:17:43;;;;;;;6.70;2.47;;;;;;;;;;5051250;28;20950;-50
2023/06/26 12:20:19;;;;;;;9.17;2.77;;;;;;;;;;5053472;28;20449;-49
2023/06/26 12:22:48;;;;;;;2.83;2.47;;;;;;;;;;5048088;28;20397;-49
2023/06/26 12:25:15;;;;;;;2.10;1.90;;;;;;;;;;5055151;28;21028;-48
2023/06/26 12:27:41;;;;;;;3.97;2.13;;;;;;;;;;5055035;28;20471;-49
2023/06/26 12:30:07;;;;;;;3.40;2.10;;;;;;;;;;5054924;28;20417;-47
2023/06/26 12:32:35;;;;;;;2.90;2.20;;;;;;;;;;5055003;28;20413;-49
2023/06/26 12:35:01;;;;;;;4.47;2.50;;;;;;;;;;5055236;28;20789;-49
2023/06/26 12:37:27;;;;;;;4.77;2.77;;;;;;;;;;5053883;28;20468;-47
2023/06/26 12:39:54;;;;;;;2.67;2.47;;;;;;;;;;5054768;28;20436;-46
2023/06/26 12:42:23;;;;;;;6.10;2.50;;;;;;;;;;5054834;28;20952;-48
2023/06/26 12:44:50;;;;;;;2.90;2.17;;;;;;;;;;5038840;28;20445;-50
2023/06/26 12:47:16;;;;;;;4.63;3.57;;;;;;;;;;5054761;28;20436;-48
2023/06/26 12:49:43;;;;;;;5.47;2.33;;;;;;;;;;5058918;28;20419;-48
2023/06/26 12:52:10;;;;;;;2.10;1.90;;;;;;;;;;5053355;28;20413;-47
2023/06/26 12:54:37;;;;;;;6.80;1.80;;;;;;;;;;5052777;28;20416;-50
2023/06/26 12:57:03;;;;;;;6.37;2.07;;;;;;;;;;5052877;28;20791;-48
2023/06/26 12:59:31;;;;;;;3.63;2.33;;;;;;;;;;5053203;28;20504;-49
2023/06/26 13:01:56;;;;;;;2.60;1.70;;;;;;;;;;5053104;28;20440;-49
2023/06/26 13:04:22;;;;;;;2.00;1.70;;;;;;;;;;5054169;28;20449;-49
2023/06/26 13:06:48;;;;;;;4.37;1.80;;;;;;;;;;5053503;28;20461;-49
2023/06/26 13:09:15;;;;;;;1.90;1.70;;;;;;;;;;5054406;28;20898;-49
2023/06/26 13:11:40;;;;;;;5.43;1.77;;;;;;;;;;5054157;28;20496;-47
2023/06/26 13:14:06;;;;;;;3.53;1.40;;;;;;;;;;5054475;28;20524;-50
2023/06/26 13:16:32;;;;;;;5.60;1.50;;;;;;;;;;5054103;28;20433;-48
2023/06/26 13:19:00;;;;;;;4.63;2.10;;;;;;;;;;5054711;28;20413;-48
2023/06/26 13:21:26;;;;;;;1.70;1.60;;;;;;;;;;5054019;28;20409;-48
2023/06/26 13:23:52;;;;;;;2.03;1.50;;;;;;;;;;5048292;28;20812;-50
2023/06/26 13:26:19;;;;;;;2.23;1.70;;;;;;;;;;5053958;28;20468;-50
2023/06/26 13:28:45;;;;;;;2.70;1.60;;;;;;;;;;5054242;28;20409;-48
2023/06/26 13:31:11;;;;;;;2.80;1.53;;;;;;;;;;5052763;28;20424;-47
2023/06/26 13:33:37;;;;;;;4.73;1.97;;;;;;;;;;5053769;28;20504;-50
2023/06/26 13:36:04;;;;;;;4.73;1.70;;;;;;;;;;5053123;28;20449;-49
2023/06/26 13:38:31;;;;;;;3.97;1.90;;;;;;;;;;5053846;28;20401;-48
2023/06/26 13:40:57;;;;;;;4.57;2.03;;;;;;;;;;5053704;28;20918;-50
2023/06/26 13:43:23;;;;;;;3.10;1.97;;;;;;;;;;5053831;28;20452;-46
2023/06/26 13:45:50;;;;;;;2.53;1.77;;;;;;;;;;5053584;28;20547;-45
2023/06/26 13:48:16;;;;;;;2.40;2.20;;;;;;;;;;5053537;28;20512;-46
2023/06/26 13:50:42;;;;;;;3.50;1.50;;;;;;;;;;5053571;28;20463;-46
2023/06/26 13:53:08;;;;;;;3.13;1.90;;;;;;;;;;5053671;28;20413;-46
2023/06/26 13:55:34;;;;;;;4.23;1.70;;;;;;;;;;5053349;28;20417;-46
2023/06/26 13:58:05;;;;;;;5.47;1.90;;;;;;;;;;5053624;28;20409;-45
2023/06/26 14:00:31;;;;;;;5.83;1.60;;;;;;;;;;5053225;28;20409;-46
2023/06/26 14:02:57;;;;;;;2.67;1.50;;;;;;;;;;5053270;28;20425;-45
2023/06/26 14:05:23;;;;;;;2.80;1.50;;;;;;;;;;5052258;28;20468;-45
2023/06/26 14:07:49;;;;;;;2.90;1.30;;;;;;;;;;5053020;28;20449;-45
2023/06/26 14:10:15;;;;;;;2.40;1.60;;;;;;;;;;5053115;28;20432;-46
2023/06/26 14:12:41;;;;;;;7.13;1.83;;;;;;;;;;5053241;28;20795;-47
2023/06/26 14:15:08;;;;;;;7.10;1.47;;;;;;;;;;5053178;28;20410;-46
2023/06/26 14:17:34;;;;;;;2.87;1.40;;;;;;;;;;5053045;28;20516;-46
2023/06/26 14:20:00;;;;;;;4.10;1.53;;;;;;;;;;5051757;28;20496;-46
2023/06/26 14:22:26;;;;;;;3.20;1.97;;;;;;;;;;5052896;28;20952;-45
2023/06/26 14:24:52;;;;;;;6.60;1.70;;;;;;;;;;5052480;28;20553;-46
2023/06/26 14:27:18;;;;;;;4.20;1.80;;;;;;;;;;5052358;28;20430;-46
2023/06/26 14:29:43;;;;;;;3.70;1.43;;;;;;;;;;5048150;28;20478;-45
2023/06/26 14:32:09;;;;;;;2.20;1.50;;;;;;;;;;5052961;28;20402;-46
2023/06/26 14:34:35;;;;;;;2.30;1.57;;;;;;;;;;5052857;28;20440;-46
2023/06/26 14:37:01;;;;;;;2.73;1.47;;;;;;;;;;5052232;28;20574;-45
2023/06/26 14:39:27;;;;;;;5.80;1.57;;;;;;;;;;5052695;28;20421;-45